Time;durP1;ratioP1;P1;durP2;ratioP2;P2;SDS_P1;SDS_P2;PMS_P1;PMS_P2;Temp;Humidity;BMP_temperature;BMP_pressure;BME280_temperature;BME280_humidity;BME280_pressure;Samples;Min_cycle;Max_cycle;Signal;HPM_P1;HPM_P2
2023/11/12 00:02:00;;;;;;;0.00;0.00;;;23.60;44.60;;;;;;5013759;28;20541;-55
2023/11/12 00:04:31;;;;;;;0.00;0.00;;;23.70;44.70;;;;;;5012802;28;20215;-54
2023/11/12 00:07:03;;;;;;;0.00;0.00;;;23.70;44.70;;;;;;5010013;28;20287;-56
2023/11/12 00:09:34;;;;;;;0.00;0.00;;;23.70;44.60;;;;;;5012514;28;20204;-52
2023/11/12 00:12:08;;;;;;;0.00;0.00;;;23.80;44.60;;;;;;5012319;28;20529;-52
2023/11/12 00:14:45;;;;;;;0.10;0.10;;;23.80;44.60;;;;;;5012714;28;20271;-52
2023/11/12 00:17:16;;;;;;;0.00;0.00;;;23.80;44.50;;;;;;5012687;28;20577;-53
2023/11/12 00:19:48;;;;;;;0.00;0.00;;;23.80;44.50;;;;;;5012934;28;20540;-54
2023/11/12 00:22:20;;;;;;;0.03;0.03;;;23.90;44.50;;;;;;5012771;28;20215;-56
2023/11/12 00:24:51;;;;;;;0.00;0.00;;;23.90;44.50;;;;;;5012145;28;20637;-55
2023/11/12 00:27:25;;;;;;;0.00;0.00;;;24.00;44.60;;;;;;5025888;28;20261;-52
2023/11/12 00:29:56;;;;;;;0.00;0.00;;;24.00;44.60;;;;;;5011555;28;20549;-55
2023/11/12 00:32:28;;;;;;;0.00;0.00;;;24.00;44.70;;;;;;5012138;28;20275;-54
2023/11/12 00:34:59;;;;;;;0.00;0.00;;;24.00;44.70;;;;;;5011627;28;20649;-53
2023/11/12 00:37:30;;;;;;;0.00;0.00;;;24.10;44.80;;;;;;5012002;28;20239;-53
2023/11/12 00:40:01;;;;;;;0.03;0.03;;;24.10;44.80;;;;;;5012193;28;20569;-52
2023/11/12 00:42:34;;;;;;;0.00;0.00;;;24.10;44.80;;;;;;5012136;28;20573;-54
2023/11/12 00:45:05;;;;;;;0.00;0.00;;;24.20;44.90;;;;;;5011842;28;20321;-53
2023/11/12 00:47:37;;;;;;;0.00;0.00;;;24.20;44.90;;;;;;5011962;28;20282;-52
2023/11/12 00:50:09;;;;;;;0.00;0.00;;;24.20;44.80;;;;;;5011911;28;20208;-55
2023/11/12 00:52:40;;;;;;;0.00;0.00;;;24.20;44.90;;;;;;5011279;28;20243;-53
2023/11/12 00:55:12;;;;;;;0.00;0.00;;;24.30;44.90;;;;;;5011353;28;20549;-52
2023/11/12 00:57:45;;;;;;;0.00;0.00;;;24.30;44.90;;;;;;5011426;28;20580;-51
2023/11/12 01:00:17;;;;;;;0.05;0.05;;;24.30;44.80;;;;;;5011917;28;20301;-53
2023/11/12 01:02:48;;;;;;;0.00;0.00;;;24.30;44.70;;;;;;5012516;28;20537;-50
2023/11/12 01:05:19;;;;;;;0.00;0.00;;;24.40;44.70;;;;;;5002978;28;20276;-53
2023/11/12 01:07:50;;;;;;;0.00;0.00;;;24.40;44.70;;;;;;4991566;28;20581;-54
2023/11/12 01:10:22;;;;;;;0.00;0.00;;;24.50;44.70;;;;;;4992202;28;20551;-51
2023/11/12 01:12:56;;;;;;;0.00;0.00;;;24.50;44.60;;;;;;4991825;28;20197;-56
2023/11/12 01:15:27;;;;;;;0.00;0.00;;;24.50;44.70;;;;;;5012356;28;20246;-54
2023/11/12 01:17:59;;;;;;;0.00;0.00;;;24.60;44.80;;;;;;5030861;28;20216;-52
2023/11/12 01:20:30;;;;;;;0.00;0.00;;;24.70;44.80;;;;;;5029999;28;20332;-49
2023/11/12 01:23:02;;;;;;;0.00;0.00;;;24.70;44.80;;;;;;5031278;28;20536;-54
2023/11/12 01:25:34;;;;;;;0.00;0.00;;;24.70;44.80;;;;;;5031505;28;20580;-53
2023/11/12 01:28:07;;;;;;;0.00;0.00;;;24.70;44.80;;;;;;5031145;28;20562;-51
2023/11/12 01:30:40;;;;;;;0.00;0.00;;;24.80;44.80;;;;;;5030866;28;20571;-52
2023/11/12 01:33:12;;;;;;;0.00;0.00;;;24.80;44.90;;;;;;5031082;28;20357;-51
2023/11/12 01:35:43;;;;;;;0.00;0.00;;;24.80;44.90;;;;;;5030791;28;20288;-54
2023/11/12 01:38:14;;;;;;;0.00;0.00;;;24.90;44.90;;;;;;5031543;28;20278;-55
2023/11/12 01:40:45;;;;;;;0.00;0.00;;;24.90;44.90;;;;;;5028177;28;20293;-51
2023/11/12 01:43:19;;;;;;;0.00;0.00;;;24.90;44.90;;;;;;5011368;28;20547;-50
2023/11/12 01:45:50;;;;;;;0.00;0.00;;;24.90;44.90;;;;;;5011063;28;20224;-53
2023/11/12 01:48:21;;;;;;;0.00;0.00;;;24.90;44.80;;;;;;5011342;28;20238;-52
2023/11/12 01:50:53;;;;;;;0.00;0.00;;;25.00;44.70;;;;;;5010669;28;20561;-51
2023/11/12 01:53:24;;;;;;;0.00;0.00;;;25.00;44.60;;;;;;5011397;28;20197;-54
2023/11/12 01:55:57;;;;;;;0.00;0.00;;;25.10;44.60;;;;;;5011233;28;20373;-54
2023/11/12 01:58:31;;;;;;;0.00;0.00;;;25.10;44.40;;;;;;5010773;28;20608;-53
2023/11/12 02:01:03;;;;;;;0.00;0.00;;;25.10;44.30;;;;;;5011313;28;20289;-54
2023/11/12 02:03:36;;;;;;;0.00;0.00;;;25.20;44.30;;;;;;5011165;28;20298;-54
2023/11/12 02:06:08;;;;;;;0.00;0.00;;;25.20;44.30;;;;;;5011208;28;20280;-53
2023/11/12 02:08:40;;;;;;;0.00;0.00;;;25.30;44.30;;;;;;5012440;28;20378;-55
2023/11/12 02:11:13;;;;;;;0.00;0.00;;;25.30;44.30;;;;;;5015052;28;20197;-55
2023/11/12 02:13:47;;;;;;;0.00;0.00;;;25.30;44.30;;;;;;5014651;28;20192;-54
2023/11/12 02:16:18;;;;;;;0.00;0.00;;;25.30;44.20;;;;;;5014612;28;20193;-51
2023/11/12 02:18:49;;;;;;;0.00;0.00;;;25.40;44.30;;;;;;5024913;28;20219;-56
2023/11/12 02:21:26;;;;;;;0.00;0.00;;;25.40;44.30;;;;;;5034342;28;20281;-52
2023/11/12 02:24:00;;;;;;;0.00;0.00;;;25.40;44.30;;;;;;5034284;28;20545;-51
2023/11/12 02:26:31;;;;;;;0.00;0.00;;;25.40;44.20;;;;;;5034453;28;20639;-54
2023/11/12 02:29:02;;;;;;;0.00;0.00;;;25.50;44.20;;;;;;5034167;28;20318;-56
2023/11/12 02:31:34;;;;;;;0.00;0.00;;;25.50;44.10;;;;;;5034408;28;20192;-55
2023/11/12 02:34:05;;;;;;;0.00;0.00;;;25.50;44.10;;;;;;5034068;28;20606;-52
2023/11/12 02:36:37;;;;;;;0.00;0.00;;;25.60;44.00;;;;;;5025756;28;20288;-52
2023/11/12 02:39:12;;;;;;;0.00;0.00;;;25.60;43.80;;;;;;5014472;28;20247;-55
2023/11/12 02:41:44;;;;;;;0.00;0.00;;;25.60;44.30;;;;;;5013908;28;20679;-48
2023/11/12 02:44:15;;;;;;;0.00;0.00;;;25.60;43.70;;;;;;5013876;28;20244;-54
2023/11/12 02:46:46;;;;;;;0.00;0.00;;;25.70;43.60;;;;;;5014167;28;20573;-49
2023/11/12 02:49:46;;;;;;;0.00;0.00;;;25.80;43.60;;;;;;5013654;28;20263;-54
2023/11/12 02:52:18;;;;;;;0.00;0.00;;;25.80;43.50;;;;;;5013644;28;20322;-55
2023/11/12 02:54:51;;;;;;;0.00;0.00;;;25.80;43.50;;;;;;5013803;28;20558;-55
2023/11/12 02:57:22;;;;;;;0.00;0.00;;;25.90;43.60;;;;;;5013432;28;20552;-52
2023/11/12 02:59:54;;;;;;;0.00;0.00;;;25.90;43.50;;;;;;5013457;28;20208;-56
2023/11/12 03:02:25;;;;;;;0.00;0.00;;;25.90;43.50;;;;;;5014044;28;20279;-51
2023/11/12 03:04:57;;;;;;;0.00;0.00;;;25.90;43.50;;;;;;5013429;28;20294;-56
2023/11/12 03:07:28;;;;;;;0.00;0.00;;;26.00;43.50;;;;;;5013531;28;20303;-55
2023/11/12 03:10:02;;;;;;;0.00;0.00;;;26.00;43.40;;;;;;5013247;28;20544;-54
2023/11/12 03:12:34;;;;;;;0.00;0.00;;;26.00;43.30;;;;;;5013612;28;20638;-53
2023/11/12 03:15:06;;;;;;;0.00;0.00;;;26.10;43.30;;;;;;5011057;28;20285;-52
2023/11/12 03:17:38;;;;;;;0.00;0.00;;;26.10;43.30;;;;;;5017860;28;20667;-53
2023/11/12 03:20:10;;;;;;;0.00;0.00;;;26.10;43.20;;;;;;5031995;28;20255;-50
2023/11/12 03:22:42;;;;;;;0.00;0.00;;;26.20;43.20;;;;;;5018828;28;20279;-49
2023/11/12 03:25:15;;;;;;;0.00;0.00;;;26.20;43.10;;;;;;5013194;28;20553;-54
2023/11/12 03:27:47;;;;;;;0.00;0.00;;;26.20;43.00;;;;;;5015088;28;20564;-50
2023/11/12 03:30:18;;;;;;;0.00;0.00;;;26.30;42.80;;;;;;5022956;28;20279;-49
2023/11/12 03:32:49;;;;;;;0.00;0.00;;;26.30;42.70;;;;;;5011832;28;20652;-52
2023/11/12 03:35:20;;;;;;;0.00;0.00;;;26.40;42.60;;;;;;5012920;28;20556;-54
2023/11/12 03:37:52;;;;;;;0.00;0.00;;;26.40;42.50;;;;;;5012095;28;20545;-55
2023/11/12 03:40:25;;;;;;;0.00;0.00;;;26.40;42.50;;;;;;5009777;28;20203;-55
2023/11/12 03:42:57;;;;;;;0.00;0.00;;;26.50;42.50;;;;;;5012383;28;20192;-53
2023/11/12 03:45:29;;;;;;;0.00;0.00;;;26.50;43.20;;;;;;5011758;28;20204;-54
2023/11/12 03:48:00;;;;;;;0.00;0.00;;;26.50;42.60;;;;;;5011019;28;20220;-49
2023/11/12 03:50:31;;;;;;;0.00;0.00;;;26.60;42.80;;;;;;5012211;28;20193;-55
2023/11/12 03:53:03;;;;;;;0.00;0.00;;;26.60;42.80;;;;;;5012121;28;20211;-52
2023/11/12 03:55:37;;;;;;;0.00;0.00;;;26.60;42.80;;;;;;5011109;28;20204;-50
2023/11/12 03:58:08;;;;;;;0.00;0.00;;;26.60;42.80;;;;;;5012863;28;20243;-47
2023/11/12 04:00:41;;;;;;;0.00;0.00;;;26.60;42.90;;;;;;5011791;28;20197;-48
2023/11/12 04:03:12;;;;;;;0.00;0.00;;;26.70;43.00;;;;;;5012407;28;20307;-50
2023/11/12 04:05:44;;;;;;;0.00;0.00;;;26.70;43.00;;;;;;5011560;28;20242;-49
2023/11/12 04:08:16;;;;;;;0.00;0.00;;;26.70;42.90;;;;;;5011969;28;20209;-49
2023/11/12 04:10:50;;;;;;;0.00;0.00;;;26.70;42.90;;;;;;5006565;28;20197;-54
2023/11/12 04:13:21;;;;;;;0.00;0.00;;;26.70;42.80;;;;;;5012172;28;20544;-48
2023/11/12 04:15:53;;;;;;;0.00;0.00;;;26.70;42.70;;;;;;5022932;28;20540;-48
2023/11/12 04:18:24;;;;;;;0.00;0.00;;;26.80;42.70;;;;;;5021289;28;20542;-51
2023/11/12 04:20:56;;;;;;;0.00;0.00;;;26.70;42.60;;;;;;5011960;28;20223;-47
2023/11/12 04:23:27;;;;;;;0.00;0.00;;;26.80;41.80;;;;;;5011425;28;20554;-52
2023/11/12 04:26:01;;;;;;;0.00;0.00;;;26.70;41.70;;;;;;4993641;28;20202;-49
2023/11/12 04:28:33;;;;;;;0.00;0.00;;;26.70;41.90;;;;;;5000577;28;20544;-50
2023/11/12 04:31:05;;;;;;;0.00;0.00;;;26.70;40.90;;;;;;5011559;28;20541;-49
2023/11/12 04:33:36;;;;;;;0.00;0.00;;;26.70;40.50;;;;;;5011480;28;20848;-52
2023/11/12 04:36:08;;;;;;;0.00;0.00;;;26.60;40.70;;;;;;5011695;28;20200;-49
2023/11/12 04:38:39;;;;;;;0.00;0.00;;;26.60;41.00;;;;;;5011152;28;20234;-50
2023/11/12 04:41:12;;;;;;;0.00;0.00;;;26.60;41.10;;;;;;5011727;28;20222;-48
2023/11/12 04:43:44;;;;;;;0.00;0.00;;;26.60;41.20;;;;;;5010900;28;20264;-48
2023/11/12 04:46:17;;;;;;;0.00;0.00;;;26.60;41.40;;;;;;5011641;28;20290;-53
2023/11/12 04:48:49;;;;;;;0.00;0.00;;;26.60;41.50;;;;;;5011260;28;20688;-50
2023/11/12 04:51:21;;;;;;;0.00;0.00;;;26.60;42.20;;;;;;5010933;28;20535;-52
2023/11/12 04:53:52;;;;;;;0.00;0.00;;;26.60;41.50;;;;;;5011967;28;20572;-51
2023/11/12 04:56:25;;;;;;;0.00;0.00;;;26.60;41.60;;;;;;5011339;28;20578;-50
2023/11/12 04:58:57;;;;;;;0.00;0.00;;;26.60;41.70;;;;;;5011139;28;20193;-51
2023/11/12 05:01:28;;;;;;;0.00;0.00;;;26.70;41.70;;;;;;5011877;28;20549;-49
2023/11/12 05:03:59;;;;;;;0.00;0.00;;;26.60;41.30;;;;;;5010488;28;20216;-52
2023/11/12 05:06:30;;;;;;;0.00;0.00;;;26.70;41.20;;;;;;5010570;28;20587;-47
2023/11/12 05:09:02;;;;;;;0.00;0.00;;;26.70;41.20;;;;;;5011192;28;20215;-51
2023/11/12 05:11:35;;;;;;;0.00;0.00;;;26.70;41.10;;;;;;5000704;28;20548;-47
2023/11/12 05:14:07;;;;;;;0.00;0.00;;;26.70;41.00;;;;;;5011041;28;20188;-48
2023/11/12 05:16:39;;;;;;;0.00;0.00;;;26.80;41.10;;;;;;5011062;28;20220;-51
2023/11/12 05:19:10;;;;;;;0.00;0.00;;;26.80;40.90;;;;;;5010801;28;20555;-46
2023/11/12 05:21:46;;;;;;;0.00;0.00;;;26.80;41.00;;;;;;5011232;28;20547;-53
2023/11/12 05:24:17;;;;;;;0.00;0.00;;;26.80;40.80;;;;;;5010933;28;20251;-48
2023/11/12 05:26:51;;;;;;;0.00;0.00;;;26.90;40.90;;;;;;5023977;28;20652;-51
2023/11/12 05:29:22;;;;;;;0.00;0.00;;;26.90;41.10;;;;;;5016984;28;20537;-51
2023/11/12 05:31:53;;;;;;;0.00;0.00;;;26.90;41.20;;;;;;5021326;28;20215;-52
2023/11/12 05:34:24;;;;;;;0.00;0.00;;;26.90;41.20;;;;;;5031124;28;20278;-49
2023/11/12 05:36:58;;;;;;;0.00;0.00;;;26.90;41.20;;;;;;5030419;28;20555;-51
2023/11/12 05:39:29;;;;;;;0.00;0.00;;;26.90;41.20;;;;;;5030410;28;20593;-52
2023/11/12 05:42:02;;;;;;;0.00;0.00;;;27.00;41.30;;;;;;5017445;28;20197;-52
2023/11/12 05:44:34;;;;;;;0.00;0.00;;;27.00;41.30;;;;;;5007510;28;20541;-51
2023/11/12 05:47:05;;;;;;;0.00;0.00;;;27.00;41.30;;;;;;5033212;28;20289;-50
2023/11/12 05:49:36;;;;;;;0.00;0.00;;;27.00;41.40;;;;;;5034136;28;20188;-50
2023/11/12 05:52:08;;;;;;;0.00;0.00;;;27.00;41.30;;;;;;5034197;28;20192;-52
2023/11/12 05:54:39;;;;;;;0.00;0.00;;;27.10;41.30;;;;;;5034377;28;20547;-49
2023/11/12 05:57:12;;;;;;;0.00;0.00;;;27.00;41.20;;;;;;5034170;28;20873;-48
2023/11/12 05:59:43;;;;;;;0.00;0.00;;;27.00;41.20;;;;;;5034867;28;20196;-49
2023/11/12 06:02:15;;;;;;;0.00;0.00;;;27.10;41.10;;;;;;5026611;28;20529;-50
2023/11/12 06:04:46;;;;;;;0.00;0.00;;;27.10;41.10;;;;;;5015160;28;20244;-47
2023/11/12 06:07:17;;;;;;;0.00;0.00;;;27.10;41.10;;;;;;5014721;28;20572;-50
2023/11/12 06:09:49;;;;;;;0.00;0.00;;;27.10;41.10;;;;;;5014626;28;20683;-49
2023/11/12 06:12:23;;;;;;;0.00;0.00;;;27.10;41.00;;;;;;5014830;28;20321;-49
2023/11/12 06:14:54;;;;;;;0.00;0.00;;;27.20;41.20;;;;;;5014729;28;20267;-50
2023/11/12 06:17:26;;;;;;;0.00;0.00;;;27.10;41.20;;;;;;5014068;28;20684;-47
2023/11/12 06:19:58;;;;;;;0.00;0.00;;;27.20;41.10;;;;;;5025173;28;20258;-50
2023/11/12 06:22:29;;;;;;;0.00;0.00;;;27.20;41.20;;;;;;5034185;28;20680;-52
2023/11/12 06:25:00;;;;;;;0.00;0.00;;;27.20;41.20;;;;;;5034348;28;20218;-50
2023/11/12 06:27:34;;;;;;;0.00;0.00;;;27.20;41.20;;;;;;5034388;28;20563;-51
2023/11/12 06:30:05;;;;;;;0.00;0.00;;;27.20;41.20;;;;;;5027725;28;20196;-51
2023/11/12 06:32:37;;;;;;;0.00;0.00;;;27.20;41.20;;;;;;5033745;28;20188;-50
2023/11/12 06:35:08;;;;;;;0.00;0.00;;;27.20;41.20;;;;;;5034084;28;20550;-51
2023/11/12 06:37:40;;;;;;;0.00;0.00;;;27.20;41.30;;;;;;5034013;28;20212;-50
2023/11/12 06:40:12;;;;;;;0.00;0.00;;;27.20;41.30;;;;;;5033689;28;20522;-50
2023/11/12 06:42:46;;;;;;;0.00;0.00;;;27.20;41.30;;;;;;5015044;28;20204;-48
2023/11/12 06:45:19;;;;;;;0.00;0.00;;;27.10;41.20;;;;;;5014001;28;20569;-50
2023/11/12 06:47:50;;;;;;;0.00;0.00;;;27.10;41.30;;;;;;5013221;28;20650;-46
2023/11/12 06:50:21;;;;;;;0.00;0.00;;;27.10;41.40;;;;;;5014233;28;20268;-49
2023/11/12 06:52:52;;;;;;;0.00;0.00;;;27.10;41.40;;;;;;5013584;28;20578;-50
2023/11/12 06:55:25;;;;;;;0.00;0.00;;;27.10;41.40;;;;;;5012899;28;20562;-49
2023/11/12 06:57:58;;;;;;;0.00;0.00;;;27.10;41.30;;;;;;5013201;28;20618;-50
2023/11/12 07:00:32;;;;;;;0.00;0.00;;;27.10;41.30;;;;;;5013230;28;20211;-51
2023/11/12 07:03:03;;;;;;;0.00;0.00;;;27.10;41.30;;;;;;5013711;28;20192;-50
2023/11/12 07:05:34;;;;;;;0.00;0.00;;;27.10;41.20;;;;;;5013537;28;20263;-46
2023/11/12 07:08:06;;;;;;;0.00;0.00;;;27.10;41.10;;;;;;5013310;28;20568;-48
2023/11/12 07:10:38;;;;;;;0.00;0.00;;;27.10;40.80;;;;;;5013458;28;20521;-45
2023/11/12 07:13:11;;;;;;;0.00;0.00;;;27.10;40.60;;;;;;5013551;28;20612;-48
2023/11/12 07:15:42;;;;;;;0.00;0.00;;;27.00;40.30;;;;;;5013093;28;20541;-51
2023/11/12 07:18:13;;;;;;;0.00;0.00;;;27.00;40.30;;;;;;5012861;28;20224;-49
2023/11/12 07:20:43;;;;;;;0.00;0.00;;;27.00;40.20;;;;;;5012988;28;20197;-51
2023/11/12 07:23:14;;;;;;;0.00;0.00;;;27.00;40.20;;;;;;5013068;28;20212;-50
2023/11/12 07:25:45;;;;;;;0.00;0.00;;;26.90;40.10;;;;;;5019962;28;20213;-51
2023/11/12 07:28:17;;;;;;;0.00;0.00;;;26.90;40.10;;;;;;5031966;28;20228;-50
2023/11/12 07:30:48;;;;;;;0.00;0.00;;;26.90;40.10;;;;;;5032153;28;20196;-47
2023/11/12 07:33:18;;;;;;;0.00;0.00;;;26.80;40.10;;;;;;5032663;28;20201;-50
2023/11/12 07:35:49;;;;;;;0.00;0.00;;;26.80;40.20;;;;;;5032766;28;20204;-48
2023/11/12 07:38:20;;;;;;;0.00;0.00;;;26.80;40.20;;;;;;5032681;28;20212;-49
2023/11/12 07:40:51;;;;;;;0.00;0.00;;;26.80;40.20;;;;;;5029160;28;20217;-51
2023/11/12 07:43:23;;;;;;;0.00;0.00;;;26.80;40.20;;;;;;5012755;28;20200;-50
2023/11/12 07:45:55;;;;;;;0.00;0.00;;;26.80;40.20;;;;;;5012183;28;20197;-49
2023/11/12 07:48:26;;;;;;;0.00;0.00;;;26.70;40.20;;;;;;5012185;28;20239;-49
2023/11/12 07:50:57;;;;;;;0.00;0.00;;;26.70;40.10;;;;;;5012323;28;20571;-51
2023/11/12 07:53:28;;;;;;;0.00;0.00;;;26.70;40.00;;;;;;5016876;28;20559;-51
2023/11/12 07:55:59;;;;;;;0.00;0.00;;;26.70;39.90;;;;;;5023284;28;20203;-52
2023/11/12 07:58:31;;;;;;;0.00;0.00;;;26.60;39.80;;;;;;5010789;28;20228;-55
2023/11/12 08:01:02;;;;;;;0.00;0.00;;;26.60;39.70;;;;;;5010948;28;20200;-51
2023/11/12 08:03:33;;;;;;;0.00;0.00;;;26.60;39.60;;;;;;5012200;28;20195;-50
2023/11/12 08:06:04;;;;;;;0.00;0.00;;;26.60;39.60;;;;;;5011466;28;20229;-50
2023/11/12 08:08:35;;;;;;;0.00;0.00;;;26.50;39.50;;;;;;5011377;28;20673;-51
2023/11/12 08:11:05;;;;;;;0.00;0.00;;;26.50;39.50;;;;;;5012408;28;20266;-48
2023/11/12 08:13:39;;;;;;;0.00;0.00;;;26.40;39.40;;;;;;5011642;28;20201;-49
2023/11/12 08:16:10;;;;;;;0.00;0.00;;;26.50;39.50;;;;;;5011479;28;20189;-47
2023/11/12 08:18:41;;;;;;;0.00;0.00;;;26.40;39.50;;;;;;5011207;28;20565;-48
2023/11/12 08:21:12;;;;;;;0.00;0.00;;;26.40;39.60;;;;;;5016631;28;20652;-49
2023/11/12 08:23:43;;;;;;;0.00;0.00;;;26.40;39.70;;;;;;5017127;28;20220;-52
2023/11/12 08:26:13;;;;;;;0.00;0.00;;;26.30;39.70;;;;;;5011435;28;20567;-47
2023/11/12 08:28:47;;;;;;;0.00;0.00;;;26.30;39.80;;;;;;5011086;28;20239;-48
2023/11/12 08:31:17;;;;;;;0.00;0.00;;;26.30;39.80;;;;;;5010959;28;20641;-51
2023/11/12 08:33:48;;;;;;;0.00;0.00;;;26.30;39.90;;;;;;5010905;28;20205;-52
2023/11/12 08:36:19;;;;;;;0.00;0.00;;;26.30;39.90;;;;;;5010634;28;20205;-50
2023/11/12 08:38:49;;;;;;;0.00;0.00;;;26.20;39.90;;;;;;5011145;28;20196;-49
2023/11/12 08:41:20;;;;;;;0.00;0.00;;;26.20;39.90;;;;;;5011442;28;20314;-51
2023/11/12 08:43:52;;;;;;;0.00;0.00;;;26.20;40.00;;;;;;5010364;28;20204;-51
2023/11/12 08:46:23;;;;;;;0.00;0.00;;;26.20;40.00;;;;;;5010372;28;20189;-49
2023/11/12 08:48:54;;;;;;;0.00;0.00;;;26.20;40.00;;;;;;5010092;28;20235;-46
2023/11/12 08:51:24;;;;;;;0.00;0.00;;;26.20;40.00;;;;;;5010980;28;20197;-50
2023/11/12 08:53:55;;;;;;;0.00;0.00;;;26.20;40.00;;;;;;5011256;28;20661;-47
2023/11/12 08:56:28;;;;;;;0.00;0.00;;;26.10;40.00;;;;;;5010624;28;20193;-49
2023/11/12 08:59:01;;;;;;;0.00;0.00;;;26.10;40.00;;;;;;5011067;28;20280;-52
2023/11/12 09:01:31;;;;;;;0.00;0.00;;;26.10;40.00;;;;;;5011136;28;20216;-48
2023/11/12 09:04:02;;;;;;;0.00;0.00;;;26.10;40.00;;;;;;5002884;28;20695;-51
2023/11/12 09:06:33;;;;;;;0.00;0.00;;;26.00;40.00;;;;;;5010482;28;20200;-54
2023/11/12 09:09:05;;;;;;;0.00;0.00;;;26.00;40.10;;;;;;5009033;28;20228;-49
2023/11/12 09:11:36;;;;;;;0.00;0.00;;;25.90;40.00;;;;;;5006673;28;20664;-43
2023/11/12 09:14:11;;;;;;;0.00;0.00;;;25.90;40.10;;;;;;5011587;28;20196;-46
2023/11/12 09:16:44;;;;;;;0.00;0.00;;;25.90;40.10;;;;;;5009736;28;20218;-48
2023/11/12 09:19:14;;;;;;;0.00;0.00;;;25.90;40.10;;;;;;5015126;28;20361;-53
2023/11/12 09:21:45;;;;;;;0.00;0.00;;;25.90;40.20;;;;;;5014856;28;20188;-43
2023/11/12 09:24:16;;;;;;;0.00;0.00;;;25.80;40.20;;;;;;5019719;28;20196;-50
2023/11/12 09:26:47;;;;;;;0.00;0.00;;;25.80;40.20;;;;;;5027121;28;20217;-46
2023/11/12 09:29:19;;;;;;;0.00;0.00;;;25.80;40.20;;;;;;5014306;28;20282;-42
2023/11/12 09:31:50;;;;;;;0.00;0.00;;;25.80;40.20;;;;;;5014305;28;20204;-51
2023/11/12 09:34:20;;;;;;;0.00;0.00;;;25.80;40.20;;;;;;5029596;28;20206;-51
2023/11/12 09:36:51;;;;;;;0.00;0.00;;;25.80;40.30;;;;;;5027411;28;20223;-45
2023/11/12 09:39:23;;;;;;;0.00;0.00;;;25.70;40.20;;;;;;5014989;28;20188;-44
2023/11/12 09:41:56;;;;;;;0.00;0.00;;;25.70;40.20;;;;;;5014831;28;20251;-48
2023/11/12 09:44:34;;;;;;;0.00;0.00;;;25.70;40.20;;;;;;5014190;28;20201;-50
2023/11/12 09:47:14;;;;;;;0.00;0.00;;;25.60;40.10;;;;;;5017383;28;20217;-52
2023/11/12 09:49:45;;;;;;;0.00;0.00;;;25.60;40.10;;;;;;4994626;28;20232;-49
2023/11/12 09:52:15;;;;;;;0.00;0.00;;;25.60;40.20;;;;;;5009804;28;20196;-48
2023/11/12 09:54:47;;;;;;;0.00;0.00;;;25.60;40.20;;;;;;5014766;28;20205;-49
2023/11/12 09:57:18;;;;;;;0.00;0.00;;;25.60;40.20;;;;;;5013285;28;20235;-50
2023/11/12 09:59:51;;;;;;;0.00;0.00;;;25.50;40.30;;;;;;5013306;28;20200;-50
2023/11/12 10:02:24;;;;;;;0.00;0.00;;;25.50;40.30;;;;;;5014510;28;20189;-51
2023/11/12 10:05:04;;;;;;;0.00;0.00;;;25.50;40.40;;;;;;5014164;28;20562;-49
2023/11/12 10:07:34;;;;;;;0.00;0.00;;;25.50;40.30;;;;;;5013567;28;20209;-49
2023/11/12 10:10:26;;;;;;;0.00;0.00;;;25.50;40.40;;;;;;5014368;28;20207;-50
2023/11/12 10:12:57;;;;;;;0.00;0.00;;;25.40;40.40;;;;;;5008243;28;20255;-50
2023/11/12 10:15:30;;;;;;;0.00;0.00;;;25.40;40.40;;;;;;5014603;28;20204;-51
2023/11/12 10:18:01;;;;;;;0.00;0.00;;;25.30;40.30;;;;;;5014077;28;20235;-50
2023/11/12 10:20:33;;;;;;;0.00;0.00;;;25.40;40.40;;;;;;5032229;28;20192;-50
2023/11/12 10:23:04;;;;;;;0.00;0.00;;;25.40;40.40;;;;;;5018902;28;20196;-49
2023/11/12 10:25:42;;;;;;;0.00;0.00;;;25.30;40.40;;;;;;5014015;28;20208;-50
2023/11/12 10:28:14;;;;;;;0.00;0.00;;;25.30;40.30;;;;;;5013558;28;20224;-51
2023/11/12 10:30:47;;;;;;;0.00;0.00;;;25.30;40.30;;;;;;5013525;28;20205;-48
2023/11/12 10:33:26;;;;;;;0.00;0.00;;;25.30;40.30;;;;;;5014524;28;20193;-50
2023/11/12 10:35:58;;;;;;;0.00;0.00;;;25.20;40.30;;;;;;5013210;28;20207;-50
2023/11/12 10:38:28;;;;;;;0.00;0.00;;;25.20;40.30;;;;;;5012346;28;20563;-48
2023/11/12 10:41:03;;;;;;;0.00;0.00;;;25.20;40.30;;;;;;5013518;28;20381;-52
2023/11/12 10:43:34;;;;;;;0.00;0.00;;;25.20;40.30;;;;;;5014089;28;20665;-50
2023/11/12 10:46:08;;;;;;;0.00;0.00;;;25.10;40.30;;;;;;5013549;28;20197;-53
2023/11/12 10:48:39;;;;;;;0.00;0.00;;;25.10;40.30;;;;;;5013691;28;20252;-51
2023/11/12 10:51:11;;;;;;;0.00;0.00;;;25.10;40.40;;;;;;5013255;28;20624;-52
2023/11/12 10:53:42;;;;;;;0.00;0.00;;;25.10;40.40;;;;;;5012276;28;20197;-51
2023/11/12 10:56:14;;;;;;;0.00;0.00;;;25.00;40.30;;;;;;5013723;28;20569;-52
2023/11/12 10:58:46;;;;;;;0.00;0.00;;;25.00;40.30;;;;;;5013600;28;20208;-50
2023/11/12 11:01:23;;;;;;;0.00;0.00;;;25.00;40.30;;;;;;5013459;28;20201;-52
2023/11/12 11:03:54;;;;;;;0.00;0.00;;;25.00;40.30;;;;;;5012815;28;20201;-49
2023/11/12 11:06:28;;;;;;;0.00;0.00;;;25.00;40.20;;;;;;5013239;28;20208;-50
2023/11/12 11:08:59;;;;;;;0.00;0.00;;;25.00;40.20;;;;;;5011655;28;20778;-49
2023/11/12 11:11:30;;;;;;;0.00;0.00;;;24.90;40.20;;;;;;5012841;28;20197;-47
2023/11/12 11:14:24;;;;;;;0.00;0.00;;;24.90;40.20;;;;;;5012578;28;20204;-52
2023/11/12 11:16:57;;;;;;;0.00;0.00;;;24.90;40.20;;;;;;5010706;28;20220;-46
2023/11/12 11:19:57;;;;;;;0.00;0.00;;;24.90;40.20;;;;;;5013139;28;20189;-49
2023/11/12 11:22:27;;;;;;;0.00;0.00;;;24.90;40.20;;;;;;5002963;28;20228;-49
2023/11/12 11:24:58;;;;;;;0.00;0.00;;;24.90;40.20;;;;;;5017314;28;20192;-48
2023/11/12 11:27:29;;;;;;;0.00;0.00;;;24.80;40.20;;;;;;5012552;28;20216;-52
2023/11/12 11:30:15;;;;;;;0.00;0.00;;;24.80;40.20;;;;;;5012824;28;20229;-48
2023/11/12 11:33:04;;;;;;;0.00;0.00;;;24.70;40.20;;;;;;5012311;28;20251;-47
2023/11/12 11:35:36;;;;;;;0.00;0.00;;;24.70;40.20;;;;;;5010608;28;20232;-48
2023/11/12 11:38:14;;;;;;;0.00;0.00;;;24.70;40.20;;;;;;5016523;28;20620;-50
2023/11/12 11:40:45;;;;;;;0.00;0.00;;;24.70;40.30;;;;;;5012813;28;20806;-46
2023/11/12 11:43:34;;;;;;;0.00;0.00;;;24.70;40.30;;;;;;5010938;28;20193;-48
2023/11/12 11:46:12;;;;;;;0.00;0.00;;;24.70;40.40;;;;;;5014327;28;20204;-45
2023/11/12 11:49:18;;;;;;;0.00;0.00;;;24.70;40.40;;;;;;5011323;28;20556;-46
2023/11/12 11:51:51;;;;;;;0.05;0.05;;;24.60;40.30;;;;;;5012273;28;20223;-49
2023/11/12 11:54:22;;;;;;;0.10;0.10;;;24.60;40.40;;;;;;5012069;28;20189;-48
2023/11/12 11:56:54;;;;;;;0.00;0.00;;;24.60;40.40;;;;;;5009094;28;20239;-50
2023/11/12 11:59:25;;;;;;;0.00;0.00;;;24.50;40.40;;;;;;5012164;28;20189;-50
2023/11/12 12:02:00;;;;;;;0.00;0.00;;;24.50;40.40;;;;;;5010338;28;20227;-50
2023/11/12 12:04:31;;;;;;;0.10;0.10;;;24.50;40.40;;;;;;4992687;28;20220;-49
2023/11/12 12:07:03;;;;;;;0.00;0.00;;;24.50;40.40;;;;;;4992395;28;20232;-46
2023/11/12 12:09:40;;;;;;;0.00;0.00;;;24.50;40.40;;;;;;4992689;28;20252;-50
2023/11/12 12:12:11;;;;;;;0.10;0.10;;;24.50;40.40;;;;;;5007377;28;20287;-47
2023/11/12 12:14:43;;;;;;;0.00;0.00;;;24.50;40.50;;;;;;5013073;28;20559;-46
2023/11/12 12:17:13;;;;;;;0.00;0.00;;;24.50;40.50;;;;;;5032077;28;20211;-51
2023/11/12 12:19:44;;;;;;;0.00;0.00;;;24.40;40.50;;;;;;5032301;28;20208;-49
2023/11/12 12:22:21;;;;;;;0.00;0.00;;;24.40;40.50;;;;;;5032533;28;20200;-50
2023/11/12 12:24:53;;;;;;;0.10;0.10;;;24.40;40.50;;;;;;5032312;28;20207;-47
2023/11/12 12:27:24;;;;;;;0.00;0.00;;;24.40;40.60;;;;;;5032531;28;20575;-49
2023/11/12 12:29:55;;;;;;;0.00;0.00;;;24.40;40.60;;;;;;5031959;28;20695;-49
2023/11/12 12:32:28;;;;;;;0.00;0.00;;;24.30;40.60;;;;;;5032184;28;20231;-49
2023/11/12 12:34:59;;;;;;;0.00;0.00;;;24.30;40.60;;;;;;5031884;28;20235;-49
2023/11/12 12:37:32;;;;;;;0.00;0.00;;;24.30;40.60;;;;;;5031470;28;20778;-52
2023/11/12 12:40:06;;;;;;;0.00;0.00;;;24.30;40.60;;;;;;5031758;28;20200;-48
2023/11/12 12:42:37;;;;;;;0.00;0.00;;;24.30;40.60;;;;;;5013410;28;20201;-48
2023/11/12 12:45:15;;;;;;;0.00;0.00;;;24.30;40.60;;;;;;5011509;28;20209;-50
2023/11/12 12:47:46;;;;;;;0.10;0.10;;;24.30;40.60;;;;;;5011348;28;20270;-50
2023/11/12 12:50:22;;;;;;;0.00;0.00;;;24.30;40.60;;;;;;5011293;28;20224;-48
2023/11/12 12:52:56;;;;;;;0.00;0.00;;;24.20;40.60;;;;;;5011453;28;20199;-48
2023/11/12 12:55:26;;;;;;;0.00;0.00;;;24.20;40.60;;;;;;5012216;28;20675;-49
2023/11/12 12:57:58;;;;;;;0.05;0.05;;;24.20;40.60;;;;;;5012198;28;20236;-47
2023/11/12 13:00:29;;;;;;;0.00;0.00;;;24.20;40.60;;;;;;5011509;28;20283;-46
2023/11/12 13:03:00;;;;;;;0.00;0.00;;;24.20;40.70;;;;;;5012008;28;20448;-50
2023/11/12 13:05:32;;;;;;;0.00;0.00;;;24.20;40.70;;;;;;5011741;28;20196;-50
2023/11/12 13:08:07;;;;;;;0.08;0.08;;;24.10;40.70;;;;;;5011421;28;20271;-48
2023/11/12 13:10:38;;;;;;;0.00;0.00;;;24.10;40.70;;;;;;5011889;28;20617;-47
2023/11/12 13:13:09;;;;;;;0.00;0.00;;;24.10;40.70;;;;;;5011814;28;20211;-46
2023/11/12 13:15:39;;;;;;;0.00;0.00;;;24.10;40.80;;;;;;5011610;28;20560;-52